createdAt,value
2022-09-23T08:02:53.253Z,16.25
2022-09-23T08:05:20.015Z,17.05
2022-09-23T08:07:46.733Z,15.55
2022-09-23T08:10:13.406Z,14.18
2022-09-23T08:12:40.096Z,12.65
2022-09-23T08:15:07.292Z,14.10
2022-09-23T08:17:34.599Z,13.20
2022-09-23T08:20:01.458Z,12.38
2022-09-23T08:22:28.221Z,11.30
2022-09-23T08:24:56.612Z,11.40
2022-09-23T08:27:23.602Z,9.85
2022-09-23T08:29:50.291Z,10.52
2022-09-23T08:32:16.934Z,11.10
2022-09-23T08:34:44.073Z,11.88
2022-09-23T08:37:11.386Z,12.77
2022-09-23T08:39:38.167Z,12.25
2022-09-23T08:42:16.379Z,11.02
2022-09-23T08:44:57.763Z,14.27
2022-09-23T08:48:10.807Z,12.13
2022-09-23T08:50:43.085Z,9.70
2022-09-23T08:53:29.658Z,11.95
2022-09-23T08:55:59.575Z,9.35
2022-09-23T08:58:47.810Z,12.55
2022-09-23T09:01:39.380Z,11.75
2022-09-23T09:04:28.163Z,11.73
2022-09-23T09:07:24.582Z,11.18
2022-09-23T09:09:59.614Z,13.15
2022-09-23T09:13:02.621Z,14.77
2022-09-23T09:15:29.555Z,16.08
2022-09-23T09:18:21.450Z,16.05
2022-09-23T09:21:08.647Z,15.63
2022-09-23T09:23:44.395Z,14.88
2022-09-23T09:26:17.137Z,9.35
2022-09-23T09:28:49.075Z,9.30
2022-09-23T09:31:42.531Z,10.25
2022-09-23T09:34:24.479Z,7.18
2022-09-23T09:37:20.833Z,7.15
2022-09-23T09:39:47.574Z,8.32
2022-09-23T09:42:21.159Z,6.80
2022-09-23T09:45:29.752Z,7.03
2022-09-23T09:48:23.314Z,7.15
2022-09-23T09:50:52.264Z,7.63
2022-09-23T09:53:27.746Z,7.25
2022-09-23T09:56:11.172Z,7.93
2022-09-23T09:58:49.959Z,7.38
2022-09-23T10:01:27.647Z,6.88
2022-09-23T10:03:59.178Z,7.55
2022-09-23T10:06:29.571Z,5.30
2022-09-23T10:09:02.300Z,5.00
2022-09-23T10:11:29.861Z,5.22
2022-09-23T10:14:05.580Z,5.68
2022-09-23T10:16:34.618Z,6.97
2022-09-23T10:19:04.106Z,6.50
2022-09-23T10:21:36.891Z,7.50
2022-09-23T10:24:08.233Z,6.97
2022-09-23T10:26:43.008Z,7.35
2022-09-23T10:29:48.302Z,9.90
2022-09-23T10:32:22.646Z,7.72
2022-09-23T10:34:53.429Z,6.38
2022-09-23T10:37:32.265Z,5.30
2022-09-23T10:40:18.618Z,4.47
2022-09-23T10:43:20.904Z,4.55
2022-09-23T10:46:09.007Z,4.05
2022-09-23T10:48:59.395Z,4.70
2022-09-23T10:51:43.860Z,3.75
2022-09-23T10:54:28.372Z,4.18
2022-09-23T10:57:00.514Z,3.55
2022-09-23T10:59:45.277Z,5.05
2022-09-23T11:02:22.071Z,3.35
2022-09-23T11:04:59.077Z,4.00
2022-09-23T11:07:40.352Z,5.40
2022-09-23T11:10:47.111Z,16.85
2022-09-23T11:13:27.978Z,6.32
2022-09-23T11:16:00.486Z,5.13
2022-09-23T11:18:39.161Z,4.68
2022-09-23T11:21:14.687Z,5.57
2022-09-23T11:23:59.788Z,5.22
2022-09-23T11:26:55.554Z,5.05
2022-09-23T11:30:13.638Z,1.90
2022-09-23T11:33:18.123Z,2.22
2022-09-23T11:35:50.848Z,2.35
2022-09-23T11:38:26.404Z,2.42
2022-09-23T11:41:01.831Z,2.90
2022-09-23T11:43:35.586Z,3.08
2022-09-23T11:46:02.314Z,2.97
2022-09-23T11:48:40.346Z,3.70
2022-09-23T11:51:11.388Z,4.10
2022-09-23T11:53:53.431Z,2.78
2022-09-23T11:56:49.473Z,2.63
2022-09-23T11:59:35.371Z,2.78
2022-09-23T12:02:30.620Z,2.08
2022-09-23T12:05:04.590Z,2.13
2022-09-23T12:07:54.182Z,2.65
2022-09-23T12:10:22.289Z,3.28
2022-09-23T12:12:58.878Z,3.63
2022-09-23T12:15:52.485Z,2.75
2022-09-23T12:18:26.152Z,2.42
2022-09-23T12:21:04.826Z,2.97
2022-09-23T12:23:49.021Z,2.65
2022-09-23T12:26:19.835Z,2.35
2022-09-23T12:28:50.405Z,3.10
2022-09-23T12:31:30.726Z,2.78
2022-09-23T12:34:00.322Z,3.58
2022-09-23T12:36:30.152Z,2.58
2022-09-23T12:39:17.837Z,2.70
2022-09-23T12:41:49.308Z,2.38
2022-09-23T12:44:42.047Z,2.80
2022-09-23T12:47:14.993Z,4.10
2022-09-23T12:49:42.679Z,4.05
2022-09-23T12:52:21.514Z,3.72
2022-09-23T12:54:50.458Z,2.60
2022-09-23T12:57:35.738Z,3.47
2022-09-23T13:00:14.400Z,3.10
2022-09-23T13:02:47.014Z,2.87
2022-09-23T13:05:44.496Z,3.08
2022-09-23T13:08:20.800Z,3.63
2022-09-23T13:10:49.799Z,3.70
2022-09-23T13:13:41.884Z,3.67
2022-09-23T13:16:26.296Z,2.97
2022-09-23T13:18:54.748Z,3.15
2022-09-23T13:21:43.879Z,3.17
2022-09-23T13:24:13.580Z,2.95
2022-09-23T13:26:45.761Z,3.17
2022-09-23T13:29:22.400Z,2.65
2022-09-23T13:31:49.356Z,3.13
2022-09-23T13:34:21.528Z,2.92
2022-09-23T13:36:48.994Z,3.45
2022-09-23T13:39:27.841Z,3.22
2022-09-23T13:42:01.041Z,3.30
2022-09-23T13:44:28.869Z,3.78
2022-09-23T13:46:59.716Z,4.05
2022-09-23T13:49:35.249Z,4.75
2022-09-23T13:52:02.908Z,5.45
2022-09-23T13:54:38.261Z,3.65
2022-09-23T13:57:05.088Z,7.97
2022-09-23T13:59:38.044Z,7.95
2022-09-23T14:02:10.790Z,6.38
2022-09-23T14:04:37.604Z,6.68
2022-09-23T14:07:06.927Z,3.42
2022-09-23T14:09:38.036Z,3.50
2022-09-23T14:12:06.608Z,4.32
2022-09-23T14:14:37.200Z,3.72
2022-09-23T14:17:06.706Z,2.65
2022-09-23T14:19:35.929Z,3.42
2022-09-23T14:22:03.831Z,4.38
2022-09-23T14:24:32.293Z,3.92
2022-09-23T14:27:08.633Z,3.08
2022-09-23T14:29:43.914Z,4.60
2022-09-23T14:32:21.162Z,4.55
2022-09-23T14:34:50.669Z,3.95
2022-09-23T14:38:04.540Z,3.72
2022-09-23T14:40:35.268Z,4.38
2022-09-23T14:43:16.668Z,4.50
2022-09-23T14:45:50.619Z,4.25
2022-09-23T14:48:23.623Z,5.05
2022-09-23T14:50:54.973Z,8.43
2022-09-23T14:53:24.605Z,133.70
2022-09-23T14:55:53.137Z,67.45
2022-09-23T14:58:25.695Z,13.32
2022-09-23T15:01:00.163Z,7.43
2022-09-23T15:03:28.617Z,5.93
2022-09-23T15:06:08.879Z,3.90
2022-09-23T15:08:36.085Z,4.10
2022-09-23T15:11:07.851Z,4.45
2022-09-23T15:13:40.730Z,3.70
2022-09-23T15:16:08.290Z,4.07
2022-09-23T15:18:38.054Z,4.95
2022-09-23T15:21:17.898Z,6.85
2022-09-23T15:26:17.050Z,4.53
2022-09-23T15:28:44.791Z,4.53
2022-09-23T15:31:19.973Z,3.50
2022-09-23T15:33:48.404Z,3.67
2022-09-23T15:36:21.775Z,3.75
2022-09-23T15:38:49.899Z,3.50
2022-09-23T15:41:17.986Z,2.88
2022-09-23T15:43:44.687Z,2.90
2022-09-23T15:46:24.048Z,3.13
2022-09-23T15:48:59.076Z,3.50
2022-09-23T15:51:27.124Z,4.03
2022-09-23T15:53:55.597Z,5.03
2022-09-23T15:56:23.543Z,6.82
2022-09-23T15:58:50.965Z,7.40
2022-09-23T16:01:33.178Z,79.40
2022-09-23T16:04:04.012Z,90.40
2022-09-23T16:06:32.528Z,9.23
2022-09-23T16:08:59.156Z,5.05
2022-09-23T16:11:31.190Z,4.65
2022-09-23T16:13:59.594Z,4.72
2022-09-23T16:16:28.175Z,4.28
2022-09-23T16:18:55.231Z,6.88
2022-09-23T16:21:26.553Z,4.63
2022-09-23T16:23:57.828Z,4.30
2022-09-23T16:26:27.429Z,4.38
2022-09-23T16:28:55.805Z,3.38
2022-09-23T16:31:31.497Z,3.72
2022-09-23T16:34:03.669Z,4.47
2022-09-23T16:36:33.792Z,5.63
2022-09-23T16:39:06.225Z,12.73
2022-09-23T16:41:33.694Z,6.68
2022-09-23T16:44:04.568Z,5.95
2022-09-23T16:46:31.918Z,4.72
2022-09-23T16:49:01.725Z,4.95
2022-09-23T16:51:30.047Z,4.57
2022-09-23T16:53:58.943Z,5.40
2022-09-23T16:56:28.947Z,5.68
2022-09-23T16:58:57.643Z,7.60
2022-09-23T17:01:45.766Z,4.32
2022-09-23T17:04:14.714Z,5.20
2022-09-23T17:06:48.437Z,4.07
2022-09-23T17:09:15.192Z,4.45
2022-09-23T17:11:49.147Z,5.28
2022-09-23T17:14:16.743Z,7.10
2022-09-23T17:16:44.240Z,5.47
2022-09-23T17:19:12.385Z,6.95
2022-09-23T17:21:39.773Z,7.57
2022-09-23T17:24:07.119Z,6.28
2022-09-23T17:26:35.529Z,7.32
2022-09-23T17:29:03.596Z,5.80
2022-09-23T17:31:30.842Z,5.85
2022-09-23T17:33:58.234Z,5.97
2022-09-23T17:36:25.681Z,5.40
2022-09-23T17:38:55.594Z,5.85
2022-09-23T17:43:54.918Z,7.43
2022-09-23T17:46:22.685Z,6.55
2022-09-23T17:48:49.901Z,9.05
2022-09-23T17:51:21.720Z,9.05
2022-09-23T17:53:49.841Z,8.18
2022-09-23T17:56:25.096Z,19.83
2022-09-23T17:58:52.837Z,11.98
2022-09-23T18:01:24.884Z,23.75
2022-09-23T18:03:55.911Z,15.52
2022-09-23T18:06:25.216Z,10.15
2022-09-23T18:08:52.503Z,8.43
2022-09-23T18:11:20.671Z,8.43
2022-09-23T18:13:55.812Z,9.20
2022-09-23T18:16:25.679Z,12.25
2022-09-23T18:21:26.438Z,32.22
2022-09-23T18:23:59.770Z,17.45
2022-09-23T18:26:35.262Z,18.98
2022-09-23T18:29:03.805Z,16.05
2022-09-23T18:31:35.176Z,14.13
2022-09-23T18:34:13.481Z,15.93
2022-09-23T18:36:40.523Z,37.50
2022-09-23T18:39:07.362Z,20.75
2022-09-23T18:41:35.213Z,13.15
2022-09-23T18:44:02.630Z,11.77
2022-09-23T18:46:30.653Z,11.32
2022-09-23T18:49:17.010Z,41.70
2022-09-23T18:51:56.483Z,27.95
2022-09-23T18:54:28.138Z,26.45
2022-09-23T18:56:55.452Z,19.30
2022-09-23T18:59:26.535Z,13.75
2022-09-23T19:01:56.754Z,10.70
2022-09-23T19:04:25.360Z,18.08
2022-09-23T19:06:54.003Z,13.10
2022-09-23T19:09:20.967Z,11.95
2022-09-23T19:11:51.914Z,9.75
2022-09-23T19:14:19.154Z,9.90
2022-09-23T19:16:46.030Z,10.85
2022-09-23T19:19:12.713Z,10.55
2022-09-23T19:21:39.501Z,14.63
2022-09-23T19:24:08.227Z,12.65
2022-09-23T19:26:40.407Z,12.52
2022-09-23T19:29:15.482Z,10.65
2022-09-23T19:31:43.476Z,10.77
2022-09-23T19:34:29.270Z,10.65
2022-09-23T19:36:58.063Z,16.55
2022-09-23T19:39:28.030Z,13.65
2022-09-23T19:44:25.210Z,15.27
2022-09-23T19:46:56.340Z,26.90
2022-09-23T19:49:25.001Z,11.77
2022-09-23T19:51:53.323Z,12.23
2022-09-23T19:54:20.959Z,11.80
2022-09-23T19:56:50.891Z,11.55
2022-09-23T19:59:19.376Z,11.52
2022-09-23T20:01:47.562Z,12.20
2022-09-23T20:04:16.024Z,13.88
2022-09-23T20:06:43.317Z,12.20
2022-09-23T20:09:10.339Z,17.60
2022-09-23T20:11:37.310Z,20.63
2022-09-23T20:14:06.226Z,17.95
2022-09-23T20:16:35.472Z,14.18
2022-09-23T20:19:04.427Z,14.93
2022-09-23T20:21:31.858Z,15.27
2022-09-23T20:23:58.739Z,14.15
2022-09-23T20:26:43.950Z,14.50
2022-09-23T20:29:11.445Z,15.70
2022-09-23T20:31:40.507Z,14.90
2022-09-23T20:34:10.871Z,38.92
2022-09-23T20:36:40.636Z,206.27
2022-09-23T20:39:08.590Z,103.57
2022-09-23T20:41:38.099Z,52.15
2022-09-23T20:44:07.884Z,34.22
2022-09-23T20:46:36.021Z,32.08
2022-09-23T20:49:09.238Z,27.40
2022-09-23T20:51:39.419Z,29.33
2022-09-23T20:56:34.027Z,23.05
2022-09-23T20:59:02.059Z,20.58
2022-09-23T21:01:29.756Z,20.77
2022-09-23T21:03:56.519Z,23.52
2022-09-23T21:06:26.392Z,21.52
2022-09-23T21:08:54.706Z,25.08
2022-09-23T21:11:22.220Z,22.40
2022-09-23T21:13:51.978Z,24.92
2022-09-23T21:16:22.239Z,42.30
2022-09-23T21:18:50.597Z,85.53
2022-09-23T21:21:19.778Z,72.85
2022-09-23T21:23:47.996Z,59.78
2022-09-23T21:26:20.475Z,37.13
2022-09-23T21:28:58.590Z,25.63
2022-09-23T21:31:28.109Z,22.90
2022-09-23T21:34:01.893Z,22.95
2022-09-23T21:36:30.560Z,25.15
2022-09-23T21:38:58.160Z,24.05
2022-09-23T21:41:25.436Z,25.10
2022-09-23T21:43:52.194Z,25.30
2022-09-23T21:46:20.805Z,25.58
2022-09-23T21:48:50.821Z,27.73
2022-09-23T21:51:23.342Z,23.60
2022-09-23T21:53:50.043Z,24.60
2022-09-23T21:56:37.812Z,26.38
2022-09-23T21:59:05.439Z,34.38
2022-09-23T22:01:35.222Z,27.77
2022-09-23T22:04:09.302Z,24.75
2022-09-23T22:06:38.393Z,25.60
2022-09-23T22:09:09.033Z,26.15
2022-09-23T22:11:55.629Z,30.50
2022-09-23T22:14:26.402Z,27.38
2022-09-23T22:16:58.557Z,31.65
2022-09-23T22:19:44.369Z,28.75
2022-09-23T22:22:16.758Z,26.83
2022-09-23T22:27:12.279Z,31.08
2022-09-23T22:29:57.754Z,31.95
2022-09-23T22:32:43.873Z,29.88
2022-09-23T22:35:13.952Z,31.17
2022-09-23T22:40:10.212Z,31.02
2022-09-23T22:42:37.662Z,33.33
2022-09-23T22:45:06.183Z,32.38
2022-09-23T22:47:37.311Z,30.25
2022-09-23T22:50:07.156Z,31.85
2022-09-23T22:52:33.957Z,34.95
2022-09-23T22:55:01.537Z,36.40
2022-09-23T22:57:28.863Z,37.33
2022-09-23T22:59:55.718Z,35.42
2022-09-23T23:02:23.856Z,37.30
2022-09-23T23:04:51.392Z,36.55
2022-09-23T23:07:21.258Z,38.05
2022-09-23T23:12:20.592Z,36.00
2022-09-23T23:14:48.572Z,39.28
2022-09-23T23:17:15.838Z,43.55
2022-09-23T23:19:42.535Z,44.38
2022-09-23T23:22:09.194Z,43.90
2022-09-23T23:24:35.873Z,39.67
2022-09-23T23:27:02.526Z,39.63
2022-09-23T23:29:29.242Z,37.47
2022-09-23T23:31:57.303Z,40.63
2022-09-23T23:34:24.004Z,38.03
2022-09-23T23:36:57.625Z,40.78
2022-09-23T23:39:25.671Z,41.40
2022-09-23T23:41:56.907Z,40.78
2022-09-23T23:44:25.036Z,41.20
2022-09-23T23:46:54.404Z,40.22
2022-09-23T23:49:21.711Z,38.75
2022-09-23T23:51:48.782Z,41.85
2022-09-23T23:54:15.550Z,42.40
2022-09-23T23:56:42.406Z,40.90
2022-09-23T23:59:09.027Z,45.67
